Flight Track Log - Related Links

Times and Time Zones

All times are in EDT time to prevent confusion due to time zone crossing. See the N6GD flight status page for this flight to view local times or setup timezone preferences in your user account.

Time Position Orientation Groundspeed Altitude Reporting Facility
EDT Latitude Longitude Course Direction KTS MPH feet Rate Location/Type
Sun 03:07:28 PM 28.2167 -81.3833 147° Southeast 231 266 2,100  Level Orlando TRACON
Sun 03:08:28 PM 28.1833 -81.4333 233° Southwest 250 288 3,500 1,043 Climbing Orlando TRACON
Sun 03:09:23 PM 28.1833 -81.5000 270° West 251 289 4,100 520 Climbing Orlando TRACON
Sun 03:10:35 PM 28.1833 -81.6000 270° West 265 305 4,600 1,842 Climbing Orlando TRACON
Sun 03:12:45 PM 28.0833 -81.7667 236° Southwest 288 331 10,300 2,289 Climbing Tampa TRACON
Sun 03:13:49 PM 28.0661 -81.8589 258° West 314 361 12,000 810 Climbing Miami Center
Sun 03:14:51 PM 28.0400 -81.9656 255° West 353 406 12,000  Level Miami Center
Sun 03:15:52 PM 27.9833 -82.0667 238° Southwest 345 397 12,000 -248 Level Tampa TRACON
Sun 03:16:52 PM 27.9333 -82.1500 236° Southwest 322 371 11,500 -850 Descending Tampa TRACON
Sun 03:17:52 PM 27.8667 -82.2167 221° Southwest 297 342 10,300 -1,059 Descending Tampa TRACON
Sun 03:18:34 PM 27.8500 -82.2667 249° West 262 302 9,700 -1,167 Descending Tampa TRACON
Sun 03:19:40 PM 27.8333 -82.3500 257° West 237 273 8,200 -1,478 Descending Tampa TRACON
Sun 03:20:52 PM 27.8000 -82.4333 246° West 243 280 6,300 -1,565 Descending Tampa TRACON
Sun 03:21:58 PM 27.7833 -82.5167 257° West 239 275 4,600 -1,500 Descending Tampa TRACON
Sun 03:22:52 PM 27.7500 -82.5833 241° Southwest 234 269 3,300 -944 Descending Tampa TRACON
Sun 03:23:46 PM 27.7500 -82.6333 270° West 191 220 2,900 -500 Descending Tampa TRACON
Sun 03:24:52 PM 27.7833 -82.6667 319° Northwest 155 178 2,300 -714 Descending Tampa TRACON
Sun 03:25:52 PM 27.8167 -82.6667 360° North 135 155 1,400 -800 Descending Tampa TRACON
Sun 03:26:52 PM 27.8667 -82.6833 344° North 134 154 700 -700 Descending Tampa TRACON
Sun 03:30:00 PM 27.9000 -82.6833 309° West  Level FlightAware Approximate

Login

Don't have an account? Register now (free) for customized features, flight alerts, and more!